sensor_id;sensor_type;location;lat;lon;timestamp;noise_LAeq;noise_LA_min;noise_LA_max;noise_LA01;noise_LA95
69668;Laerm;66534;52.370;4.832;2024-03-23T00:52:24;40.90;37.91;44.02;;
69668;Laerm;66534;52.370;4.832;2024-03-23T00:53:25;45.13;38.05;58.28;;
69668;Laerm;66534;52.370;4.832;2024-03-23T00:54:27;41.90;39.28;49.24;;
69668;Laerm;66534;52.370;4.832;2024-03-23T00:54:57;41.35;37.48;47.58;;
69668;Laerm;66534;52.370;4.832;2024-03-23T00:55:27;40.83;37.00;56.61;;
69668;Laerm;66534;52.370;4.832;2024-03-23T00:55:58;48.29;40.61;61.94;;
69668;Laerm;66534;52.370;4.832;2024-03-23T00:56:28;41.73;38.50;47.29;;
69668;Laerm;66534;52.370;4.832;2024-03-23T00:56:58;41.14;38.94;43.22;;
69668;Laerm;66534;52.370;4.832;2024-03-23T00:57:29;41.68;38.94;45.64;;
69668;Laerm;66534;52.370;4.832;2024-03-23T00:57:59;42.63;39.43;48.77;;
69668;Laerm;66534;52.370;4.832;2024-03-23T00:58:30;41.60;39.19;49.17;;
69668;Laerm;66534;52.370;4.832;2024-03-23T00:59:00;44.30;40.21;49.46;;
69668;Laerm;66534;52.370;4.832;2024-03-23T00:59:30;49.01;43.80;58.29;;
69668;Laerm;66534;52.370;4.832;2024-03-23T01:00:01;44.57;38.95;52.96;;
69668;Laerm;66534;52.370;4.832;2024-03-23T01:00:31;42.59;39.97;46.87;;
69668;Laerm;66534;52.370;4.832;2024-03-23T01:01:02;48.86;39.60;54.32;;
69668;Laerm;66534;52.370;4.832;2024-03-23T01:01:35;40.95;37.87;47.85;;
69668;Laerm;66534;52.370;4.832;2024-03-23T01:02:06;39.80;37.30;44.32;;
69668;Laerm;66534;52.370;4.832;2024-03-23T01:02:36;40.34;37.72;45.36;;
69668;Laerm;66534;52.370;4.832;2024-03-23T01:03:07;42.29;38.54;48.98;;
69668;Laerm;66534;52.370;4.832;2024-03-23T01:03:37;41.04;37.51;43.88;;
69668;Laerm;66534;52.370;4.832;2024-03-23T01:04:07;41.25;37.69;45.76;;
69668;Laerm;66534;52.370;4.832;2024-03-23T01:04:38;44.64;40.79;48.39;;
69668;Laerm;66534;52.370;4.832;2024-03-23T01:05:08;43.24;39.92;50.85;;
69668;Laerm;66534;52.370;4.832;2024-03-23T01:05:38;42.79;38.07;57.38;;
69668;Laerm;66534;52.370;4.832;2024-03-23T01:06:09;42.67;38.76;47.44;;
69668;Laerm;66534;52.370;4.832;2024-03-23T01:06:39;42.38;39.04;51.21;;
69668;Laerm;66534;52.370;4.832;2024-03-23T01:07:10;40.02;37.53;43.39;;
69668;Laerm;66534;52.370;4.832;2024-03-23T01:07:40;39.15;36.80;45.37;;
69668;Laerm;66534;52.370;4.832;2024-03-23T01:08:10;39.72;37.14;42.77;;
69668;Laerm;66534;52.370;4.832;2024-03-23T01:08:41;41.31;38.91;46.03;;
69668;Laerm;66534;52.370;4.832;2024-03-23T01:09:11;42.48;38.16;52.20;;
69668;Laerm;66534;52.370;4.832;2024-03-23T01:09:41;40.16;36.56;44.97;;
69668;Laerm;66534;52.370;4.832;2024-03-23T01:10:12;45.75;40.19;51.46;;
69668;Laerm;66534;52.370;4.832;2024-03-23T01:10:42;41.96;38.03;47.93;;
69668;Laerm;66534;52.370;4.832;2024-03-23T01:11:13;41.30;37.87;52.08;;
69668;Laerm;66534;52.370;4.832;2024-03-23T01:11:43;40.99;37.45;45.24;;
69668;Laerm;66534;52.370;4.832;2024-03-23T01:12:13;39.25;36.05;43.52;;
69668;Laerm;66534;52.370;4.832;2024-03-23T01:12:44;39.46;36.68;43.68;;
69668;Laerm;66534;52.370;4.832;2024-03-23T01:13:14;44.73;38.92;50.46;;
69668;Laerm;66534;52.370;4.832;2024-03-23T01:13:45;43.26;38.47;52.53;;
69668;Laerm;66534;52.370;4.832;2024-03-23T01:14:15;41.53;37.25;47.07;;
69668;Laerm;66534;52.370;4.832;2024-03-23T01:14:45;44.23;36.74;55.51;;
69668;Laerm;66534;52.370;4.832;2024-03-23T01:15:16;43.21;36.98;50.44;;
69668;Laerm;66534;52.370;4.832;2024-03-23T01:15:48;39.39;36.65;43.86;;
69668;Laerm;66534;52.370;4.832;2024-03-23T01:16:19;47.43;37.25;63.75;;
69668;Laerm;66534;52.370;4.832;2024-03-23T01:16:49;41.13;37.22;50.02;;
69668;Laerm;66534;52.370;4.832;2024-03-23T01:17:19;42.80;37.74;47.19;;
69668;Laerm;66534;52.370;4.832;2024-03-23T01:17:50;43.19;39.21;50.35;;
69668;Laerm;66534;52.370;4.832;2024-03-23T01:18:21;40.41;37.43;45.28;;
69668;Laerm;66534;52.370;4.832;2024-03-23T01:18:51;38.74;36.46;51.02;;
69668;Laerm;66534;52.370;4.832;2024-03-23T01:19:22;40.64;36.74;48.39;;
69668;Laerm;66534;52.370;4.832;2024-03-23T01:19:52;41.06;36.24;49.18;;
69668;Laerm;66534;52.370;4.832;2024-03-23T01:20:22;37.26;35.24;39.93;;
69668;Laerm;66534;52.370;4.832;2024-03-23T01:20:53;39.16;35.58;47.42;;
69668;Laerm;66534;52.370;4.832;2024-03-23T01:21:23;39.85;37.32;43.84;;
69668;Laerm;66534;52.370;4.832;2024-03-23T01:21:54;40.96;37.46;45.80;;
69668;Laerm;66534;52.370;4.832;2024-03-23T01:22:24;40.78;37.15;46.46;;
69668;Laerm;66534;52.370;4.832;2024-03-23T01:22:54;39.54;36.41;45.69;;
69668;Laerm;66534;52.370;4.832;2024-03-23T01:23:25;40.74;37.85;43.96;;
69668;Laerm;66534;52.370;4.832;2024-03-23T01:23:55;39.57;35.88;46.82;;
69668;Laerm;66534;52.370;4.832;2024-03-23T01:24:26;40.84;37.60;44.54;;
69668;Laerm;66534;52.370;4.832;2024-03-23T01:24:56;42.54;37.29;50.80;;
69668;Laerm;66534;52.370;4.832;2024-03-23T01:25:26;42.56;37.89;48.36;;
69668;Laerm;66534;52.370;4.832;2024-03-23T01:25:57;50.36;36.77;63.23;;
69668;Laerm;66534;52.370;4.832;2024-03-23T01:26:27;39.70;36.79;44.15;;
69668;Laerm;66534;52.370;4.832;2024-03-23T01:26:57;41.03;38.49;45.74;;
69668;Laerm;66534;52.370;4.832;2024-03-23T01:27:28;41.34;36.75;47.42;;
69668;Laerm;66534;52.370;4.832;2024-03-23T01:27:58;43.14;38.01;50.11;;
69668;Laerm;66534;52.370;4.832;2024-03-23T01:28:28;40.36;36.71;49.85;;
69668;Laerm;66534;52.370;4.832;2024-03-23T01:28:59;41.96;36.81;52.63;;
69668;Laerm;66534;52.370;4.832;2024-03-23T01:29:29;43.74;37.94;51.19;;
69668;Laerm;66534;52.370;4.832;2024-03-23T01:30:00;39.95;37.06;42.02;;
69668;Laerm;66534;52.370;4.832;2024-03-23T01:30:30;39.75;36.61;44.79;;
69668;Laerm;66534;52.370;4.832;2024-03-23T01:31:00;41.29;36.23;48.92;;
69668;Laerm;66534;52.370;4.832;2024-03-23T01:31:31;39.42;36.16;48.39;;
69668;Laerm;66534;52.370;4.832;2024-03-23T01:32:02;42.35;35.69;55.02;;
69668;Laerm;66534;52.370;4.832;2024-03-23T01:32:32;43.37;37.88;52.12;;
69668;Laerm;66534;52.370;4.832;2024-03-23T01:33:02;40.43;37.52;45.16;;
69668;Laerm;66534;52.370;4.832;2024-03-23T01:33:33;40.91;37.08;55.47;;
69668;Laerm;66534;52.370;4.832;2024-03-23T01:34:03;39.93;36.67;44.29;;
69668;Laerm;66534;52.370;4.832;2024-03-23T01:34:33;37.82;35.84;40.24;;
69668;Laerm;66534;52.370;4.832;2024-03-23T01:35:04;41.79;37.39;47.50;;
69668;Laerm;66534;52.370;4.832;2024-03-23T01:35:34;43.73;39.40;49.62;;
69668;Laerm;66534;52.370;4.832;2024-03-23T01:36:05;50.82;40.60;62.31;;
69668;Laerm;66534;52.370;4.832;2024-03-23T01:36:35;42.68;39.30;48.20;;
69668;Laerm;66534;52.370;4.832;2024-03-23T01:37:06;41.29;38.25;44.66;;
69668;Laerm;66534;52.370;4.832;2024-03-23T01:37:36;39.39;36.37;45.06;;
69668;Laerm;66534;52.370;4.832;2024-03-23T01:38:06;38.42;36.42;40.73;;
69668;Laerm;66534;52.370;4.832;2024-03-23T01:38:37;38.65;35.85;42.98;;
69668;Laerm;66534;52.370;4.832;2024-03-23T01:39:07;39.26;35.55;44.61;;
69668;Laerm;66534;52.370;4.832;2024-03-23T01:39:39;46.14;37.13;55.89;;
69668;Laerm;66534;52.370;4.832;2024-03-23T01:40:10;44.11;38.36;52.65;;
69668;Laerm;66534;52.370;4.832;2024-03-23T01:40:41;40.06;36.86;44.67;;
69668;Laerm;66534;52.370;4.832;2024-03-23T01:41:11;40.91;36.93;46.48;;
69668;Laerm;66534;52.370;4.832;2024-03-23T01:41:41;43.96;38.47;48.46;;
69668;Laerm;66534;52.370;4.832;2024-03-23T01:42:13;40.42;37.73;43.55;;
69668;Laerm;66534;52.370;4.832;2024-03-23T01:42:55;40.81;36.73;50.37;;
69668;Laerm;66534;52.370;4.832;2024-03-23T01:43:25;40.37;37.23;50.87;;
69668;Laerm;66534;52.370;4.832;2024-03-23T01:43:56;42.90;37.51;57.68;;
69668;Laerm;66534;52.370;4.832;2024-03-23T01:44:27;38.51;36.45;40.71;;
69668;Laerm;66534;52.370;4.832;2024-03-23T01:44:57;40.60;38.00;44.34;;
69668;Laerm;66534;52.370;4.832;2024-03-23T01:45:27;43.38;37.42;53.35;;
69668;Laerm;66534;52.370;4.832;2024-03-23T01:45:58;42.65;38.00;48.80;;
69668;Laerm;66534;52.370;4.832;2024-03-23T01:46:28;43.37;38.95;51.71;;
69668;Laerm;66534;52.370;4.832;2024-03-23T01:46:58;41.74;37.81;46.80;;
69668;Laerm;66534;52.370;4.832;2024-03-23T01:47:29;43.55;36.64;53.43;;
69668;Laerm;66534;52.370;4.832;2024-03-23T01:48:01;40.47;37.41;52.89;;
69668;Laerm;66534;52.370;4.832;2024-03-23T01:48:32;37.74;35.70;43.38;;
69668;Laerm;66534;52.370;4.832;2024-03-23T01:49:04;39.19;35.87;44.20;;
69668;Laerm;66534;52.370;4.832;2024-03-23T01:49:35;42.59;38.08;47.46;;
69668;Laerm;66534;52.370;4.832;2024-03-23T01:50:06;43.30;37.34;51.93;;
69668;Laerm;66534;52.370;4.832;2024-03-23T01:50:36;41.11;36.22;46.87;;
69668;Laerm;66534;52.370;4.832;2024-03-23T01:51:07;40.20;37.27;45.28;;
69668;Laerm;66534;52.370;4.832;2024-03-23T01:51:38;44.20;37.20;59.72;;
69668;Laerm;66534;52.370;4.832;2024-03-23T01:52:09;40.22;36.21;48.39;;
69668;Laerm;66534;52.370;4.832;2024-03-23T01:52:39;43.36;39.11;51.21;;
69668;Laerm;66534;52.370;4.832;2024-03-23T01:53:10;39.20;36.37;44.57;;
69668;Laerm;66534;52.370;4.832;2024-03-23T01:53:40;39.66;36.80;45.10;;
69668;Laerm;66534;52.370;4.832;2024-03-23T01:54:11;43.56;37.74;52.94;;
69668;Laerm;66534;52.370;4.832;2024-03-23T01:54:42;38.44;35.79;44.73;;
69668;Laerm;66534;52.370;4.832;2024-03-23T01:55:12;41.24;36.19;47.40;;
69668;Laerm;66534;52.370;4.832;2024-03-23T01:55:43;40.53;36.76;45.50;;
69668;Laerm;66534;52.370;4.832;2024-03-23T01:56:14;37.62;34.57;46.29;;
69668;Laerm;66534;52.370;4.832;2024-03-23T01:56:44;38.12;35.29;42.31;;
69668;Laerm;66534;52.370;4.832;2024-03-23T01:57:15;42.50;36.74;48.31;;
69668;Laerm;66534;52.370;4.832;2024-03-23T01:57:46;45.29;38.76;52.68;;
69668;Laerm;66534;52.370;4.832;2024-03-23T01:58:16;38.91;36.23;43.46;;
69668;Laerm;66534;52.370;4.832;2024-03-23T01:58:46;40.45;36.56;57.66;;
69668;Laerm;66534;52.370;4.832;2024-03-23T01:59:17;41.39;35.80;48.54;;
69668;Laerm;66534;52.370;4.832;2024-03-23T01:59:48;46.10;40.21;55.54;;
69668;Laerm;66534;52.370;4.832;2024-03-23T02:00:18;44.10;40.00;49.01;;
69668;Laerm;66534;52.370;4.832;2024-03-23T02:00:48;40.54;37.39;44.50;;
69668;Laerm;66534;52.370;4.832;2024-03-23T02:01:19;39.87;36.03;45.29;;
69668;Laerm;66534;52.370;4.832;2024-03-23T02:01:49;40.09;36.84;43.27;;
69668;Laerm;66534;52.370;4.832;2024-03-23T02:02:20;42.88;38.08;47.18;;
69668;Laerm;66534;52.370;4.832;2024-03-23T02:02:50;43.35;37.99;49.86;;
69668;Laerm;66534;52.370;4.832;2024-03-23T02:03:24;38.68;36.35;41.21;;
69668;Laerm;66534;52.370;4.832;2024-03-23T02:03:55;39.09;36.39;44.02;;
69668;Laerm;66534;52.370;4.832;2024-03-23T02:04:26;43.69;38.49;47.78;;
69668;Laerm;66534;52.370;4.832;2024-03-23T02:04:56;39.16;36.04;42.40;;
69668;Laerm;66534;52.370;4.832;2024-03-23T02:05:26;39.80;35.53;51.96;;
69668;Laerm;66534;52.370;4.832;2024-03-23T02:05:57;39.22;37.11;41.76;;
69668;Laerm;66534;52.370;4.832;2024-03-23T02:06:28;41.53;37.06;46.92;;
69668;Laerm;66534;52.370;4.832;2024-03-23T02:06:58;38.70;36.14;44.02;;
69668;Laerm;66534;52.370;4.832;2024-03-23T02:07:29;40.72;36.44;46.30;;
69668;Laerm;66534;52.370;4.832;2024-03-23T02:08:00;38.32;35.34;41.27;;
69668;Laerm;66534;52.370;4.832;2024-03-23T02:08:30;39.76;36.46;43.78;;
69668;Laerm;66534;52.370;4.832;2024-03-23T02:09:01;39.81;36.97;43.19;;
69668;Laerm;66534;52.370;4.832;2024-03-23T02:09:33;39.18;35.21;44.52;;
69668;Laerm;66534;52.370;4.832;2024-03-23T02:10:05;40.56;37.25;45.43;;
69668;Laerm;66534;52.370;4.832;2024-03-23T02:10:36;38.23;35.71;42.30;;
69668;Laerm;66534;52.370;4.832;2024-03-23T02:11:06;41.27;36.82;46.24;;
69668;Laerm;66534;52.370;4.832;2024-03-23T02:11:36;40.14;36.64;45.05;;
69668;Laerm;66534;52.370;4.832;2024-03-23T02:12:07;44.20;38.45;54.04;;
69668;Laerm;66534;52.370;4.832;2024-03-23T02:12:38;38.96;35.23;44.20;;
69668;Laerm;66534;52.370;4.832;2024-03-23T02:13:09;45.99;35.40;59.30;;
69668;Laerm;66534;52.370;4.832;2024-03-23T02:13:39;44.58;37.42;52.10;;
69668;Laerm;66534;52.370;4.832;2024-03-23T02:14:10;39.50;36.29;43.60;;
69668;Laerm;66534;52.370;4.832;2024-03-23T02:14:40;42.44;37.82;50.03;;
69668;Laerm;66534;52.370;4.832;2024-03-23T02:15:10;41.93;38.40;47.19;;
69668;Laerm;66534;52.370;4.832;2024-03-23T02:15:41;42.06;37.22;48.63;;
69668;Laerm;66534;52.370;4.832;2024-03-23T02:16:12;42.88;37.19;54.99;;
69668;Laerm;66534;52.370;4.832;2024-03-23T02:16:43;38.51;35.79;42.08;;
69668;Laerm;66534;52.370;4.832;2024-03-23T02:17:14;39.27;36.31;47.47;;
69668;Laerm;66534;52.370;4.832;2024-03-23T02:17:44;39.47;36.83;44.44;;
69668;Laerm;66534;52.370;4.832;2024-03-23T02:18:14;42.84;37.12;50.83;;
69668;Laerm;66534;52.370;4.832;2024-03-23T02:18:45;38.71;36.81;41.65;;
69668;Laerm;66534;52.370;4.832;2024-03-23T02:19:15;39.70;36.69;43.57;;
69668;Laerm;66534;52.370;4.832;2024-03-23T02:19:45;38.87;35.76;42.32;;
69668;Laerm;66534;52.370;4.832;2024-03-23T02:20:16;41.05;35.77;49.01;;
69668;Laerm;66534;52.370;4.832;2024-03-23T02:20:47;39.29;35.33;54.89;;
69668;Laerm;66534;52.370;4.832;2024-03-23T02:21:17;38.10;35.13;43.29;;
69668;Laerm;66534;52.370;4.832;2024-03-23T02:21:48;40.50;37.06;44.35;;
69668;Laerm;66534;52.370;4.832;2024-03-23T02:22:18;39.37;35.16;50.18;;
69668;Laerm;66534;52.370;4.832;2024-03-23T02:22:51;40.77;35.51;54.89;;
69668;Laerm;66534;52.370;4.832;2024-03-23T02:23:22;38.27;35.17;43.38;;
69668;Laerm;66534;52.370;4.832;2024-03-23T02:23:52;40.94;35.96;48.60;;
69668;Laerm;66534;52.370;4.832;2024-03-23T02:24:22;40.44;37.32;43.72;;
69668;Laerm;66534;52.370;4.832;2024-03-23T02:24:53;39.52;36.65;47.81;;
69668;Laerm;66534;52.370;4.832;2024-03-23T02:25:23;42.39;36.92;53.91;;
69668;Laerm;66534;52.370;4.832;2024-03-23T02:25:54;40.71;36.13;45.98;;
69668;Laerm;66534;52.370;4.832;2024-03-23T02:26:24;37.38;34.68;42.49;;
69668;Laerm;66534;52.370;4.832;2024-03-23T02:26:54;38.26;34.50;41.71;;
69668;Laerm;66534;52.370;4.832;2024-03-23T02:27:25;41.51;37.92;47.71;;
69668;Laerm;66534;52.370;4.832;2024-03-23T02:27:55;41.83;37.03;46.67;;
69668;Laerm;66534;52.370;4.832;2024-03-23T02:28:25;38.88;35.77;43.65;;
69668;Laerm;66534;52.370;4.832;2024-03-23T02:28:56;37.72;35.51;40.28;;
69668;Laerm;66534;52.370;4.832;2024-03-23T02:29:26;40.90;35.61;47.42;;
69668;Laerm;66534;52.370;4.832;2024-03-23T02:29:56;37.20;34.52;44.91;;
69668;Laerm;66534;52.370;4.832;2024-03-23T02:30:27;36.99;34.60;39.97;;
69668;Laerm;66534;52.370;4.832;2024-03-23T02:31:00;39.14;35.38;45.89;;
69668;Laerm;66534;52.370;4.832;2024-03-23T02:31:31;40.56;37.64;43.08;;
69668;Laerm;66534;52.370;4.832;2024-03-23T02:32:01;39.55;35.60;45.51;;
69668;Laerm;66534;52.370;4.832;2024-03-23T02:32:32;40.98;36.51;47.95;;
69668;Laerm;66534;52.370;4.832;2024-03-23T02:33:03;38.38;36.17;42.86;;
69668;Laerm;66534;52.370;4.832;2024-03-23T02:33:33;38.85;35.31;46.12;;
69668;Laerm;66534;52.370;4.832;2024-03-23T02:34:05;38.93;36.11;43.85;;
69668;Laerm;66534;52.370;4.832;2024-03-23T02:34:35;38.39;36.16;42.17;;
69668;Laerm;66534;52.370;4.832;2024-03-23T02:35:06;40.24;35.88;44.98;;
69668;Laerm;66534;52.370;4.832;2024-03-23T02:35:36;41.97;36.13;51.83;;
69668;Laerm;66534;52.370;4.832;2024-03-23T02:36:07;40.78;35.30;47.78;;
69668;Laerm;66534;52.370;4.832;2024-03-23T02:36:37;37.37;34.35;41.27;;
69668;Laerm;66534;52.370;4.832;2024-03-23T02:37:11;38.07;34.50;43.17;;
69668;Laerm;66534;52.370;4.832;2024-03-23T02:37:41;39.32;35.17;46.08;;
69668;Laerm;66534;52.370;4.832;2024-03-23T02:38:12;36.28;34.04;40.27;;
69668;Laerm;66534;52.370;4.832;2024-03-23T02:38:42;36.43;34.37;41.83;;
69668;Laerm;66534;52.370;4.832;2024-03-23T02:39:12;37.28;34.79;41.31;;
69668;Laerm;66534;52.370;4.832;2024-03-23T02:39:43;38.71;34.95;48.35;;
69668;Laerm;66534;52.370;4.832;2024-03-23T02:40:13;43.04;36.56;60.10;;
69668;Laerm;66534;52.370;4.832;2024-03-23T02:40:44;45.98;36.64;58.46;;
69668;Laerm;66534;52.370;4.832;2024-03-23T02:41:14;41.84;35.19;56.99;;
69668;Laerm;66534;52.370;4.832;2024-03-23T02:41:45;39.23;35.80;43.17;;
69668;Laerm;66534;52.370;4.832;2024-03-23T02:42:15;38.35;35.44;43.17;;
69668;Laerm;66534;52.370;4.832;2024-03-23T02:42:47;39.74;35.60;46.25;;
69668;Laerm;66534;52.370;4.832;2024-03-23T02:43:18;39.48;36.12;42.93;;
69668;Laerm;66534;52.370;4.832;2024-03-23T02:43:49;38.94;35.30;46.44;;
69668;Laerm;66534;52.370;4.832;2024-03-23T02:44:20;36.94;34.35;41.17;;
69668;Laerm;66534;52.370;4.832;2024-03-23T02:44:50;37.88;34.00;45.47;;
69668;Laerm;66534;52.370;4.832;2024-03-23T02:45:20;40.54;35.01;46.57;;
69668;Laerm;66534;52.370;4.832;2024-03-23T02:45:51;40.31;35.05;48.27;;
69668;Laerm;66534;52.370;4.832;2024-03-23T02:46:21;37.68;34.93;42.88;;
69668;Laerm;66534;52.370;4.832;2024-03-23T02:46:51;38.38;34.80;44.14;;
69668;Laerm;66534;52.370;4.832;2024-03-23T02:47:22;40.66;35.71;45.18;;
69668;Laerm;66534;52.370;4.832;2024-03-23T02:47:52;37.16;34.99;42.03;;
69668;Laerm;66534;52.370;4.832;2024-03-23T02:48:23;38.76;35.77;44.01;;
69668;Laerm;66534;52.370;4.832;2024-03-23T02:48:54;38.57;35.41;43.25;;
69668;Laerm;66534;52.370;4.832;2024-03-23T02:49:26;39.49;35.71;45.23;;
69668;Laerm;66534;52.370;4.832;2024-03-23T02:49:57;37.64;35.03;45.89;;
69668;Laerm;66534;52.370;4.832;2024-03-23T02:50:27;41.75;34.41;48.79;;
69668;Laerm;66534;52.370;4.832;2024-03-23T02:50:57;43.32;37.13;50.53;;
69668;Laerm;66534;52.370;4.832;2024-03-23T02:51:28;38.55;35.59;44.26;;
69668;Laerm;66534;52.370;4.832;2024-03-23T02:51:58;43.23;37.83;52.23;;
69668;Laerm;66534;52.370;4.832;2024-03-23T02:52:28;40.33;34.46;47.43;;
69668;Laerm;66534;52.370;4.832;2024-03-23T02:52:59;38.74;34.10;48.16;;
69668;Laerm;66534;52.370;4.832;2024-03-23T02:53:29;41.10;35.89;46.37;;
69668;Laerm;66534;52.370;4.832;2024-03-23T02:53:59;45.66;38.35;56.57;;
69668;Laerm;66534;52.370;4.832;2024-03-23T02:54:30;40.92;35.71;47.42;;
69668;Laerm;66534;52.370;4.832;2024-03-23T02:55:00;40.08;34.77;45.18;;
69668;Laerm;66534;52.370;4.832;2024-03-23T02:55:32;37.05;34.33;42.16;;
69668;Laerm;66534;52.370;4.832;2024-03-23T02:56:02;39.97;35.57;50.15;;
69668;Laerm;66534;52.370;4.832;2024-03-23T02:56:33;42.89;36.42;58.56;;
69668;Laerm;66534;52.370;4.832;2024-03-23T02:57:03;39.72;35.81;44.83;;
69668;Laerm;66534;52.370;4.832;2024-03-23T02:57:34;41.50;37.91;47.81;;
69668;Laerm;66534;52.370;4.832;2024-03-23T02:58:05;42.14;37.14;46.85;;
69668;Laerm;66534;52.370;4.832;2024-03-23T02:58:35;37.23;34.40;44.23;;
69668;Laerm;66534;52.370;4.832;2024-03-23T02:59:06;37.30;34.80;42.51;;
69668;Laerm;66534;52.370;4.832;2024-03-23T02:59:36;38.34;33.98;47.51;;
69668;Laerm;66534;52.370;4.832;2024-03-23T03:00:07;39.08;35.10;45.96;;
69668;Laerm;66534;52.370;4.832;2024-03-23T03:00:37;38.17;34.26;44.82;;
69668;Laerm;66534;52.370;4.832;2024-03-23T03:01:08;39.87;36.85;44.54;;
69668;Laerm;66534;52.370;4.832;2024-03-23T03:01:38;45.28;37.75;52.60;;
69668;Laerm;66534;52.370;4.832;2024-03-23T03:02:08;43.94;36.78;54.05;;
69668;Laerm;66534;52.370;4.832;2024-03-23T03:02:39;40.58;36.39;48.29;;
69668;Laerm;66534;52.370;4.832;2024-03-23T03:03:09;39.86;36.70;47.63;;
69668;Laerm;66534;52.370;4.832;2024-03-23T03:03:41;38.00;34.91;52.10;;
69668;Laerm;66534;52.370;4.832;2024-03-23T03:04:11;38.57;35.70;43.93;;
69668;Laerm;66534;52.370;4.832;2024-03-23T03:04:42;40.14;35.32;49.21;;
69668;Laerm;66534;52.370;4.832;2024-03-23T03:05:12;41.67;37.73;47.71;;
69668;Laerm;66534;52.370;4.832;2024-03-23T03:05:44;42.68;37.21;54.03;;
69668;Laerm;66534;52.370;4.832;2024-03-23T03:06:23;40.24;36.00;47.46;;
69668;Laerm;66534;52.370;4.832;2024-03-23T03:06:53;38.99;35.71;44.38;;
69668;Laerm;66534;52.370;4.832;2024-03-23T03:07:24;37.49;34.35;44.42;;
69668;Laerm;66534;52.370;4.832;2024-03-23T03:07:54;37.10;34.34;42.86;;
69668;Laerm;66534;52.370;4.832;2024-03-23T03:08:24;35.73;33.69;39.74;;
69668;Laerm;66534;52.370;4.832;2024-03-23T03:08:55;37.62;34.84;44.24;;
69668;Laerm;66534;52.370;4.832;2024-03-23T03:09:25;39.17;35.87;44.95;;
69668;Laerm;66534;52.370;4.832;2024-03-23T03:09:55;42.80;37.09;47.09;;
69668;Laerm;66534;52.370;4.832;2024-03-23T03:10:26;41.99;38.97;46.29;;
69668;Laerm;66534;52.370;4.832;2024-03-23T03:10:56;41.78;37.82;46.41;;
69668;Laerm;66534;52.370;4.832;2024-03-23T03:11:26;39.05;36.55;43.14;;
69668;Laerm;66534;52.370;4.832;2024-03-23T03:11:57;37.94;34.79;46.09;;
69668;Laerm;66534;52.370;4.832;2024-03-23T03:12:27;37.77;34.76;44.54;;
69668;Laerm;66534;52.370;4.832;2024-03-23T03:12:57;37.04;34.58;44.64;;
69668;Laerm;66534;52.370;4.832;2024-03-23T03:13:28;39.51;34.79;45.59;;
69668;Laerm;66534;52.370;4.832;2024-03-23T03:13:58;38.93;34.08;45.78;;
69668;Laerm;66534;52.370;4.832;2024-03-23T03:14:30;36.23;33.94;43.90;;
69668;Laerm;66534;52.370;4.832;2024-03-23T03:15:00;38.92;33.64;47.08;;
69668;Laerm;66534;52.370;4.832;2024-03-23T03:15:31;39.65;36.09;46.37;;
69668;Laerm;66534;52.370;4.832;2024-03-23T03:16:01;45.32;36.62;52.92;;
69668;Laerm;66534;52.370;4.832;2024-03-23T03:16:32;40.53;34.84;48.74;;
69668;Laerm;66534;52.370;4.832;2024-03-23T03:17:02;37.86;34.56;44.20;;
69668;Laerm;66534;52.370;4.832;2024-03-23T03:17:33;37.04;34.25;41.59;;
69668;Laerm;66534;52.370;4.832;2024-03-23T03:18:03;42.09;36.07;53.33;;
69668;Laerm;66534;52.370;4.832;2024-03-23T03:18:34;44.00;37.00;52.18;;
69668;Laerm;66534;52.370;4.832;2024-03-23T03:19:04;44.74;36.01;56.35;;
69668;Laerm;66534;52.370;4.832;2024-03-23T03:19:34;38.43;35.34;44.08;;
69668;Laerm;66534;52.370;4.832;2024-03-23T03:20:05;43.72;36.97;49.96;;
69668;Laerm;66534;52.370;4.832;2024-03-23T03:20:39;39.84;35.91;45.52;;
69668;Laerm;66534;52.370;4.832;2024-03-23T03:21:10;37.91;33.87;45.33;;
69668;Laerm;66534;52.370;4.832;2024-03-23T03:21:43;39.93;34.20;49.57;;
69668;Laerm;66534;52.370;4.832;2024-03-23T03:22:13;36.64;33.93;41.99;;
69668;Laerm;66534;52.370;4.832;2024-03-23T03:22:44;38.03;34.54;47.75;;
69668;Laerm;66534;52.370;4.832;2024-03-23T03:23:14;37.74;34.71;45.54;;
69668;Laerm;66534;52.370;4.832;2024-03-23T03:23:44;40.45;35.79;46.38;;
69668;Laerm;66534;52.370;4.832;2024-03-23T03:24:15;37.89;34.70;50.39;;
69668;Laerm;66534;52.370;4.832;2024-03-23T03:24:45;38.30;34.91;45.97;;
69668;Laerm;66534;52.370;4.832;2024-03-23T03:25:16;38.51;34.14;47.07;;
69668;Laerm;66534;52.370;4.832;2024-03-23T03:25:46;36.12;33.87;43.39;;
69668;Laerm;66534;52.370;4.832;2024-03-23T03:26:17;36.69;34.00;46.76;;
69668;Laerm;66534;52.370;4.832;2024-03-23T03:26:47;37.13;33.86;45.55;;
69668;Laerm;66534;52.370;4.832;2024-03-23T03:27:18;37.06;34.40;40.85;;
69668;Laerm;66534;52.370;4.832;2024-03-23T03:27:48;42.79;34.88;48.82;;
69668;Laerm;66534;52.370;4.832;2024-03-23T03:28:19;38.69;35.65;42.74;;
69668;Laerm;66534;52.370;4.832;2024-03-23T03:28:50;39.07;36.14;45.35;;
69668;Laerm;66534;52.370;4.832;2024-03-23T03:29:21;42.97;37.84;51.51;;
69668;Laerm;66534;52.370;4.832;2024-03-23T03:29:52;42.05;38.48;47.93;;
69668;Laerm;66534;52.370;4.832;2024-03-23T03:30:22;41.06;37.99;45.85;;
69668;Laerm;66534;52.370;4.832;2024-03-23T03:30:52;43.27;38.38;48.06;;
69668;Laerm;66534;52.370;4.832;2024-03-23T03:31:23;39.71;36.97;44.50;;
69668;Laerm;66534;52.370;4.832;2024-03-23T03:31:53;37.97;34.66;44.46;;
69668;Laerm;66534;52.370;4.832;2024-03-23T03:32:23;38.72;33.91;47.53;;
69668;Laerm;66534;52.370;4.832;2024-03-23T03:32:54;38.98;35.57;45.16;;
69668;Laerm;66534;52.370;4.832;2024-03-23T03:33:26;36.92;33.76;39.48;;
69668;Laerm;66534;52.370;4.832;2024-03-23T03:33:57;35.72;33.54;39.45;;
69668;Laerm;66534;52.370;4.832;2024-03-23T03:34:27;43.66;35.30;50.61;;
69668;Laerm;66534;52.370;4.832;2024-03-23T03:34:57;39.08;35.80;47.40;;
69668;Laerm;66534;52.370;4.832;2024-03-23T03:35:28;39.00;35.22;46.00;;
69668;Laerm;66534;52.370;4.832;2024-03-23T03:36:00;40.45;36.26;44.60;;
69668;Laerm;66534;52.370;4.832;2024-03-23T03:36:30;38.91;35.14;42.59;;
69668;Laerm;66534;52.370;4.832;2024-03-23T03:37:01;36.51;34.49;40.33;;
69668;Laerm;66534;52.370;4.832;2024-03-23T03:37:31;38.36;35.22;45.25;;
69668;Laerm;66534;52.370;4.832;2024-03-23T03:38:01;38.63;35.46;53.29;;
69668;Laerm;66534;52.370;4.832;2024-03-23T03:38:32;37.94;34.88;41.84;;
69668;Laerm;66534;52.370;4.832;2024-03-23T03:39:02;41.61;37.09;49.77;;
69668;Laerm;66534;52.370;4.832;2024-03-23T03:39:34;41.53;36.81;48.68;;
69668;Laerm;66534;52.370;4.832;2024-03-23T03:40:04;41.71;38.86;45.04;;
69668;Laerm;66534;52.370;4.832;2024-03-23T03:40:35;40.04;36.98;44.89;;
69668;Laerm;66534;52.370;4.832;2024-03-23T03:41:05;37.77;35.19;47.02;;
69668;Laerm;66534;52.370;4.832;2024-03-23T03:41:39;39.78;35.57;46.44;;
69668;Laerm;66534;52.370;4.832;2024-03-23T03:42:09;39.02;36.13;46.90;;
69668;Laerm;66534;52.370;4.832;2024-03-23T03:42:39;39.94;35.73;44.75;;
69668;Laerm;66534;52.370;4.832;2024-03-23T03:43:10;41.06;37.27;50.12;;
69668;Laerm;66534;52.370;4.832;2024-03-23T03:43:40;39.33;35.06;44.91;;
69668;Laerm;66534;52.370;4.832;2024-03-23T03:44:11;36.71;34.75;41.91;;
69668;Laerm;66534;52.370;4.832;2024-03-23T03:44:41;40.73;35.88;47.70;;